Check out our new PWSWeather beta!
PWSweather.com
Personal Weather Stations
Station Observations
PENICUIKWS
PenicuikGB

PenicuikGB

Lat: 55.830932, Lon: -3.224533000000065

Elevation: 166

Station Type: Fine Offset

http://weather.penicuik.org

High Low Average
Temperature 85.6°F29.8°C 50.4°F10.2°C 66.7°F19.3°C
Dew Point 58.0°F14.4°C 40.8°F4.9°C 52.2°F11.2°C
Winds 6.6 mph 10.6 kmh Calm Calm 2.0 mph S3.2 kmh S
Wind Gusts 9.2 mph14.8 kmh -- 4.0 mph6.4 kmh
Humidity 90% 23% 64%
Pressure 30.13 in1020.3 mb 29.95 in1014.2 mb -
Precipitation 0.00 in0.0 mm - -
Hour Temp Dew Point Humidity Winds Wind Gusts Pressure Precip Precip Rate Daily Precip Total
12:00 AM 56.3°F13.5°C 51.5°F10.8°C 84% 0.7 mph WSW1.1 kmh WSW 1.6 mph2.6 kmh 29.95 in1014.2 mb 0.00 in0.0 mm 0.00 in0.0 mm 0.00 in0.0 mm
12:15 AM 56.1°F13.4°C 51.0°F10.6°C 83% 0.6 mph NW1.0 kmh NW 0.7 mph1.1 kmh 29.95 in1014.2 mb 0.00 in0.0 mm 0.00 in0.0 mm 0.00 in0.0 mm
12:30 AM 55.9°F13.3°C 50.9°F10.5°C 83% 0.6 mph W1.0 kmh W 1.6 mph2.6 kmh 29.95 in1014.2 mb 0.00 in0.0 mm 0.00 in0.0 mm 0.00 in0.0 mm
12:45 AM 56.7°F13.7°C 51.2°F10.7°C 82% 0.9 mph WNW1.4 kmh WNW 1.6 mph2.6 kmh 29.95 in1014.2 mb 0.00 in0.0 mm 0.00 in0.0 mm 0.00 in0.0 mm
01:00 AM 56.3°F13.5°C 50.6°F10.3°C 81% 1.0 mph NW1.6 kmh NW 2.2 mph3.5 kmh 29.95 in1014.2 mb 0.00 in0.0 mm 0.00 in0.0 mm 0.00 in0.0 mm
01:15 AM 55.6°F13.1°C 50.2°F10.1°C 82% 0.9 mph NW1.4 kmh NW 1.6 mph2.6 kmh 29.96 in1014.6 mb 0.00 in0.0 mm 0.00 in0.0 mm 0.00 in0.0 mm
01:30 AM 55.2°F12.9°C 50.2°F10.1°C 83% 0.5 mph NW0.8 kmh NW 1.6 mph2.6 kmh 29.96 in1014.6 mb 0.00 in0.0 mm 0.00 in0.0 mm 0.00 in0.0 mm
01:45 AM 55.2°F12.9°C 50.2°F10.1°C 83% 0.7 mph N1.1 kmh N 1.6 mph2.6 kmh 29.95 in1014.2 mb 0.00 in0.0 mm 0.00 in0.0 mm 0.00 in0.0 mm
02:00 AM 55.0°F12.8°C 50.3°F10.2°C 84% 0.3 mph N0.5 kmh N 1.6 mph2.6 kmh 29.95 in1014.2 mb 0.00 in0.0 mm 0.00 in0.0 mm 0.00 in0.0 mm
02:15 AM 54.5°F12.5°C 49.8°F9.9°C 84% 0.9 mph NW1.4 kmh NW 3.1 mph5.0 kmh 29.95 in1014.2 mb 0.00 in0.0 mm 0.00 in0.0 mm 0.00 in0.0 mm
02:30 AM 53.8°F12.1°C 49.4°F9.7°C 85% 0.2 mph NW0.3 kmh NW 0.7 mph1.1 kmh 29.96 in1014.6 mb 0.00 in0.0 mm 0.00 in0.0 mm 0.00 in0.0 mm
02:45 AM 53.2°F11.8°C 49.8°F9.9°C 88% 1.8 mph N2.9 kmh N 3.1 mph5.0 kmh 29.96 in1014.6 mb 0.00 in0.0 mm 0.00 in0.0 mm 0.00 in0.0 mm
03:00 AM 53.1°F11.7°C 49.6°F9.8°C 88% 0.6 mph S1.0 kmh S 2.2 mph3.5 kmh 29.96 in1014.6 mb 0.00 in0.0 mm 0.00 in0.0 mm 0.00 in0.0 mm
03:15 AM 52.7°F11.5°C 49.3°F9.6°C 88% 1.3 mph W2.1 kmh W 1.6 mph2.6 kmh 29.96 in1014.6 mb 0.00 in0.0 mm 0.00 in0.0 mm 0.00 in0.0 mm
03:30 AM 52.5°F11.4°C 49.4°F9.7°C 89% 0.9 mph NW1.4 kmh NW 1.6 mph2.6 kmh 29.96 in1014.6 mb 0.00 in0.0 mm 0.00 in0.0 mm 0.00 in0.0 mm
03:45 AM 52.5°F11.4°C 49.4°F9.7°C 89% 0.8 mph NW1.3 kmh NW 2.2 mph3.5 kmh 29.96 in1014.6 mb 0.00 in0.0 mm 0.00 in0.0 mm 0.00 in0.0 mm
04:00 AM 53.1°F11.7°C 50.2°F10.1°C 90% 1.7 mph N2.7 kmh N 3.1 mph5.0 kmh 29.96 in1014.6 mb 0.00 in0.0 mm 0.00 in0.0 mm 0.00 in0.0 mm
04:15 AM 54.1°F12.3°C 51.0°F10.6°C 89% 1.7 mph WNW2.7 kmh WNW 2.2 mph3.5 kmh 29.97 in1014.9 mb 0.00 in0.0 mm 0.00 in0.0 mm 0.00 in0.0 mm
04:30 AM 55.8°F13.2°C 52.9°F11.6°C 90% 2.1 mph NNW3.4 kmh NNW 3.8 mph6.1 kmh 29.97 in1014.9 mb 0.00 in0.0 mm 0.00 in0.0 mm 0.00 in0.0 mm
04:45 AM 59.0°F15.0°C 53.5°F11.9°C 82% 1.8 mph E2.9 kmh E 3.1 mph5.0 kmh 29.97 in1014.9 mb 0.00 in0.0 mm 0.00 in0.0 mm 0.00 in0.0 mm
05:00 AM 60.3°F15.7°C 53.4°F11.9°C 78% 2.2 mph SSW3.5 kmh SSW 5.4 mph8.7 kmh 29.97 in1014.9 mb 0.00 in0.0 mm 0.00 in0.0 mm 0.00 in0.0 mm
05:15 AM 61.7°F16.5°C 52.6°F11.4°C 72% 3.2 mph SE5.1 kmh SE 6.0 mph9.7 kmh 29.97 in1014.9 mb 0.00 in0.0 mm 0.00 in0.0 mm 0.00 in0.0 mm
05:30 AM 62.4°F16.9°C 52.9°F11.6°C 71% 3.7 mph WSW6.0 kmh WSW 6.0 mph9.7 kmh 29.98 in1015.2 mb 0.00 in0.0 mm 0.00 in0.0 mm 0.00 in0.0 mm
05:45 AM 62.2°F16.8°C 53.1°F11.7°C 72% 4.6 mph SSE7.4 kmh SSE 6.9 mph11.1 kmh 29.99 in1015.6 mb 0.00 in0.0 mm 0.00 in0.0 mm 0.00 in0.0 mm
06:00 AM 65.3°F18.5°C 54.9°F12.7°C 69% 3.3 mph S5.3 kmh S 6.0 mph9.7 kmh 29.99 in1015.6 mb 0.00 in0.0 mm 0.00 in0.0 mm 0.00 in0.0 mm
06:15 AM 68.0°F20.0°C 55.0°F12.8°C 63% 1.9 mph SSE3.1 kmh SSE 3.1 mph5.0 kmh 29.99 in1015.6 mb 0.00 in0.0 mm 0.00 in0.0 mm 0.00 in0.0 mm
06:30 AM 70.9°F21.6°C 54.4°F12.4°C 56% 2.4 mph S3.9 kmh S 4.5 mph7.2 kmh 29.99 in1015.6 mb 0.00 in0.0 mm 0.00 in0.0 mm 0.00 in0.0 mm
06:45 AM 71.4°F21.9°C 54.9°F12.7°C 56% 2.3 mph SW3.7 kmh SW 3.1 mph5.0 kmh 29.99 in1015.6 mb 0.00 in0.0 mm 0.00 in0.0 mm 0.00 in0.0 mm
07:00 AM 71.4°F21.9°C 52.9°F11.6°C 52% 2.9 mph ESE4.7 kmh ESE 3.8 mph6.1 kmh 30.01 in1016.3 mb 0.00 in0.0 mm 0.00 in0.0 mm 0.00 in0.0 mm
07:15 AM 73.0°F22.8°C 53.9°F12.2°C 51% 2.6 mph S4.2 kmh S 3.8 mph6.1 kmh 30.01 in1016.3 mb 0.00 in0.0 mm 0.00 in0.0 mm 0.00 in0.0 mm
07:30 AM 73.8°F23.2°C 55.1°F12.8°C 52% 2.9 mph SSE4.7 kmh SSE 3.8 mph6.1 kmh 30.01 in1016.3 mb 0.00 in0.0 mm 0.00 in0.0 mm 0.00 in0.0 mm
07:45 AM 74.1°F23.4°C 53.8°F12.1°C 49% 3.0 mph SSE4.8 kmh SSE 3.8 mph6.1 kmh 30.01 in1016.3 mb 0.00 in0.0 mm 0.00 in0.0 mm 0.00 in0.0 mm
08:00 AM 69.8°F21.0°C 52.9°F11.6°C 55% 2.1 mph SE3.4 kmh SE 3.8 mph6.1 kmh 30.01 in1016.3 mb 0.00 in0.0 mm 0.00 in0.0 mm 0.00 in0.0 mm
08:15 AM 68.4°F20.2°C 54.4°F12.4°C 61% 1.8 mph S2.9 kmh S 2.2 mph3.5 kmh 30.02 in1016.6 mb 0.00 in0.0 mm 0.00 in0.0 mm 0.00 in0.0 mm
08:30 AM 73.0°F22.8°C 55.4°F13.0°C 54% 2.2 mph SE3.5 kmh SE 3.1 mph5.0 kmh 30.02 in1016.6 mb 0.00 in0.0 mm 0.00 in0.0 mm 0.00 in0.0 mm
08:45 AM 71.1°F21.7°C 55.1°F12.8°C 57% 2.5 mph WNW4.0 kmh WNW 3.8 mph6.1 kmh 30.02 in1016.6 mb 0.00 in0.0 mm 0.00 in0.0 mm 0.00 in0.0 mm
09:00 AM 73.0°F22.8°C 56.9°F13.8°C 57% 2.0 mph ENE3.2 kmh ENE 3.1 mph5.0 kmh 30.02 in1016.6 mb 0.00 in0.0 mm 0.00 in0.0 mm 0.00 in0.0 mm
09:15 AM 77.5°F25.3°C 58.0°F14.4°C 51% 2.3 mph NE3.7 kmh NE 3.1 mph5.0 kmh 30.02 in1016.6 mb 0.00 in0.0 mm 0.00 in0.0 mm 0.00 in0.0 mm
09:30 AM 81.5°F27.5°C 56.9°F13.8°C 43% 2.5 mph NE4.0 kmh NE 3.8 mph6.1 kmh 30.02 in1016.6 mb 0.00 in0.0 mm 0.00 in0.0 mm 0.00 in0.0 mm
09:45 AM 79.2°F26.2°C 54.1°F12.3°C 42% 2.5 mph S4.0 kmh S 3.8 mph6.1 kmh 30.02 in1016.6 mb 0.00 in0.0 mm 0.00 in0.0 mm 0.00 in0.0 mm
10:00 AM 73.4°F23.0°C 54.7°F12.6°C 52% 2.4 mph NNE3.9 kmh NNE 3.8 mph6.1 kmh 30.03 in1016.9 mb 0.00 in0.0 mm 0.00 in0.0 mm 0.00 in0.0 mm
10:15 AM 80.8°F27.1°C 54.9°F12.7°C 41% 2.6 mph E4.2 kmh E 3.8 mph6.1 kmh 30.02 in1016.6 mb 0.00 in0.0 mm 0.00 in0.0 mm 0.00 in0.0 mm
10:30 AM 81.5°F27.5°C 53.5°F11.9°C 38% 2.6 mph SSE4.2 kmh SSE 3.8 mph6.1 kmh 30.03 in1016.9 mb 0.00 in0.0 mm 0.00 in0.0 mm 0.00 in0.0 mm
10:45 AM 81.3°F27.4°C 53.3°F11.8°C 38% 2.4 mph S3.9 kmh S 4.5 mph7.2 kmh 30.03 in1016.9 mb 0.00 in0.0 mm 0.00 in0.0 mm 0.00 in0.0 mm
11:00 AM 80.8°F27.1°C 52.8°F11.6°C 38% 2.2 mph NNE3.5 kmh NNE 3.8 mph6.1 kmh 30.02 in1016.6 mb 0.00 in0.0 mm 0.00 in0.0 mm 0.00 in0.0 mm
11:15 AM 80.8°F27.1°C 52.8°F11.6°C 38% 2.8 mph ESE4.5 kmh ESE 3.8 mph6.1 kmh 30.03 in1016.9 mb 0.00 in0.0 mm 0.00 in0.0 mm 0.00 in0.0 mm
11:30 AM 80.1°F26.7°C 52.9°F11.6°C 39% 2.7 mph SE4.3 kmh SE 4.5 mph7.2 kmh 30.03 in1016.9 mb 0.00 in0.0 mm 0.00 in0.0 mm 0.00 in0.0 mm
11:45 AM 81.7°F27.6°C 52.2°F11.2°C 36% 2.0 mph NNE3.2 kmh NNE 3.1 mph5.0 kmh 30.03 in1016.9 mb 0.00 in0.0 mm 0.00 in0.0 mm 0.00 in0.0 mm
12:00 PM 82.6°F28.1°C 52.2°F11.2°C 35% 2.4 mph N3.9 kmh N 3.8 mph6.1 kmh 30.04 in1017.3 mb 0.00 in0.0 mm 0.00 in0.0 mm 0.00 in0.0 mm
12:15 PM 81.1°F27.3°C 50.9°F10.5°C 35% 3.0 mph NE4.8 kmh NE 6.0 mph9.7 kmh 30.04 in1017.3 mb 0.00 in0.0 mm 0.00 in0.0 mm 0.00 in0.0 mm
12:30 PM 81.7°F27.6°C 50.6°F10.3°C 34% 3.1 mph SW5.0 kmh SW 3.8 mph6.1 kmh 30.04 in1017.3 mb 0.00 in0.0 mm 0.00 in0.0 mm 0.00 in0.0 mm
12:45 PM 81.3°F27.4°C 47.8°F8.8°C 31% 3.8 mph S6.1 kmh S 6.0 mph9.7 kmh 30.04 in1017.3 mb 0.00 in0.0 mm 0.00 in0.0 mm 0.00 in0.0 mm
01:00 PM 79.9°F26.6°C 48.2°F9.0°C 33% 2.9 mph SSW4.7 kmh SSW 6.0 mph9.7 kmh 30.04 in1017.3 mb 0.00 in0.0 mm 0.00 in0.0 mm 0.00 in0.0 mm
01:15 PM 79.2°F26.2°C 49.2°F9.6°C 35% 6.5 mph S10.5 kmh S 9.2 mph14.8 kmh 30.04 in1017.3 mb 0.00 in0.0 mm 0.00 in0.0 mm 0.00 in0.0 mm
01:30 PM 81.7°F27.6°C 49.0°F9.4°C 32% 2.3 mph E3.7 kmh E 3.8 mph6.1 kmh 30.04 in1017.3 mb 0.00 in0.0 mm 0.00 in0.0 mm 0.00 in0.0 mm
01:45 PM 83.1°F28.4°C 48.5°F9.2°C 30% 3.2 mph S5.1 kmh S 7.6 mph12.2 kmh 30.05 in1017.6 mb 0.00 in0.0 mm 0.00 in0.0 mm 0.00 in0.0 mm
02:00 PM 81.5°F27.5°C 45.3°F7.4°C 28% 3.8 mph S6.1 kmh S 6.0 mph9.7 kmh 30.04 in1017.3 mb 0.00 in0.0 mm 0.00 in0.0 mm 0.00 in0.0 mm
02:15 PM 80.8°F27.1°C 46.5°F8.1°C 30% 3.2 mph SW5.1 kmh SW 3.8 mph6.1 kmh 30.05 in1017.6 mb 0.00 in0.0 mm 0.00 in0.0 mm 0.00 in0.0 mm
02:30 PM 81.7°F27.6°C 47.3°F8.5°C 30% 2.8 mph S4.5 kmh S 3.8 mph6.1 kmh 30.05 in1017.6 mb 0.00 in0.0 mm 0.00 in0.0 mm 0.00 in0.0 mm
02:45 PM 82.2°F27.9°C 47.7°F8.7°C 30% 3.3 mph SW5.3 kmh SW 7.6 mph12.2 kmh 30.05 in1017.6 mb 0.00 in0.0 mm 0.00 in0.0 mm 0.00 in0.0 mm
03:00 PM 85.6°F29.8°C 49.8°F9.9°C 29% 2.0 mph NNE3.2 kmh NNE 3.1 mph5.0 kmh 30.05 in1017.6 mb 0.00 in0.0 mm 0.00 in0.0 mm 0.00 in0.0 mm
03:15 PM 85.1°F29.5°C 43.2°F6.2°C 23% 2.6 mph NE4.2 kmh NE 6.0 mph9.7 kmh 30.05 in1017.6 mb 0.00 in0.0 mm 0.00 in0.0 mm 0.00 in0.0 mm
03:30 PM 81.0°F27.2°C 40.8°F4.9°C 24% 2.1 mph NW3.4 kmh NW 3.1 mph5.0 kmh 30.05 in1017.6 mb 0.00 in0.0 mm 0.00 in0.0 mm 0.00 in0.0 mm
03:45 PM 76.6°F24.8°C 56.6°F13.7°C 50% 2.7 mph N4.3 kmh N 4.5 mph7.2 kmh 30.05 in1017.6 mb 0.00 in0.0 mm 0.00 in0.0 mm 0.00 in0.0 mm
04:00 PM 74.7°F23.7°C 56.9°F13.8°C 54% 2.9 mph NNE4.7 kmh NNE 6.9 mph11.1 kmh 30.06 in1017.9 mb 0.00 in0.0 mm 0.00 in0.0 mm 0.00 in0.0 mm
04:15 PM 72.0°F22.2°C 56.4°F13.6°C 58% 4.8 mph N7.7 kmh N 7.6 mph12.2 kmh 30.06 in1017.9 mb 0.00 in0.0 mm 0.00 in0.0 mm 0.00 in0.0 mm
04:30 PM 72.0°F22.2°C 56.9°F13.8°C 59% 4.4 mph N7.1 kmh N 5.4 mph8.7 kmh 30.06 in1017.9 mb 0.00 in0.0 mm 0.00 in0.0 mm 0.00 in0.0 mm
04:45 PM 70.5°F21.4°C 56.4°F13.6°C 61% 6.6 mph N10.6 kmh N 9.2 mph14.8 kmh 30.06 in1017.9 mb 0.00 in0.0 mm 0.00 in0.0 mm 0.00 in0.0 mm
05:00 PM 69.8°F21.0°C 56.7°F13.7°C 63% 5.2 mph NNE8.4 kmh NNE 6.9 mph11.1 kmh 30.05 in1017.6 mb 0.00 in0.0 mm 0.00 in0.0 mm 0.00 in0.0 mm
05:15 PM 69.4°F20.8°C 56.8°F13.8°C 64% 3.8 mph N6.1 kmh N 6.0 mph9.7 kmh 30.06 in1017.9 mb 0.00 in0.0 mm 0.00 in0.0 mm 0.00 in0.0 mm
05:30 PM 68.0°F20.0°C 57.1°F13.9°C 68% 5.0 mph NNE8.0 kmh NNE 6.9 mph11.1 kmh 30.06 in1017.9 mb 0.00 in0.0 mm 0.00 in0.0 mm 0.00 in0.0 mm
05:45 PM 67.6°F19.8°C 57.1°F13.9°C 69% 5.0 mph N8.0 kmh N 6.9 mph11.1 kmh 30.07 in1018.3 mb 0.00 in0.0 mm 0.00 in0.0 mm 0.00 in0.0 mm
06:00 PM 66.9°F19.4°C 57.2°F14.0°C 71% 5.4 mph N8.7 kmh N 6.9 mph11.1 kmh 30.06 in1017.9 mb 0.00 in0.0 mm 0.00 in0.0 mm 0.00 in0.0 mm
06:15 PM 66.7°F19.3°C 57.1°F13.9°C 71% 3.0 mph NW4.8 kmh NW 5.4 mph8.7 kmh 30.07 in1018.3 mb 0.00 in0.0 mm 0.00 in0.0 mm 0.00 in0.0 mm
06:30 PM 65.7°F18.7°C 56.4°F13.6°C 72% 3.4 mph NW5.5 kmh NW 4.5 mph7.2 kmh 30.08 in1018.6 mb 0.00 in0.0 mm 0.00 in0.0 mm 0.00 in0.0 mm
06:45 PM 64.6°F18.1°C 55.7°F13.2°C 73% 2.6 mph N4.2 kmh N 4.5 mph7.2 kmh 30.07 in1018.3 mb 0.00 in0.0 mm 0.00 in0.0 mm 0.00 in0.0 mm
07:00 PM 64.0°F17.8°C 55.6°F13.1°C 74% 3.1 mph N5.0 kmh N 5.4 mph8.7 kmh 30.08 in1018.6 mb 0.00 in0.0 mm 0.00 in0.0 mm 0.00 in0.0 mm
07:15 PM 63.3°F17.4°C 54.9°F12.7°C 74% 2.1 mph N3.4 kmh N 3.1 mph5.0 kmh 30.09 in1019.0 mb 0.00 in0.0 mm 0.00 in0.0 mm 0.00 in0.0 mm
07:30 PM 62.4°F16.9°C 55.1°F12.8°C 77% 2.0 mph N3.2 kmh N 3.1 mph5.0 kmh 30.09 in1019.0 mb 0.00 in0.0 mm 0.00 in0.0 mm 0.00 in0.0 mm
07:45 PM 61.7°F16.5°C 54.8°F12.7°C 78% 1.8 mph NNE2.9 kmh NNE 2.2 mph3.5 kmh 30.08 in1018.6 mb 0.00 in0.0 mm 0.00 in0.0 mm 0.00 in0.0 mm
08:00 PM 60.6°F15.9°C 54.4°F12.4°C 80% 0.2 mph N0.3 kmh N 0.7 mph1.1 kmh 30.08 in1018.6 mb 0.00 in0.0 mm 0.00 in0.0 mm 0.00 in0.0 mm
08:15 PM 59.9°F15.5°C 54.1°F12.3°C 81% Calm Calm -- 30.09 in1019.0 mb 0.00 in0.0 mm 0.00 in0.0 mm 0.00 in0.0 mm
08:30 PM 59.2°F15.1°C 53.7°F12.1°C 82% 0.3 mph WSW0.5 kmh WSW 0.7 mph1.1 kmh 30.09 in1019.0 mb 0.00 in0.0 mm 0.00 in0.0 mm 0.00 in0.0 mm
08:45 PM 58.5°F14.7°C 53.7°F12.1°C 84% Calm Calm 0.7 mph1.1 kmh 30.10 in1019.3 mb 0.00 in0.0 mm 0.00 in0.0 mm 0.00 in0.0 mm
09:00 PM 57.6°F14.2°C 53.4°F11.9°C 86% 0.2 mph SW0.3 kmh SW 1.6 mph2.6 kmh 30.10 in1019.3 mb 0.00 in0.0 mm 0.00 in0.0 mm 0.00 in0.0 mm
09:15 PM 57.2°F14.0°C 53.4°F11.9°C 87% 0.2 mph WNW0.3 kmh WNW 0.7 mph1.1 kmh 30.11 in1019.6 mb 0.00 in0.0 mm 0.00 in0.0 mm 0.00 in0.0 mm
09:30 PM 56.1°F13.4°C 52.9°F11.6°C 89% 0.1 mph N0.2 kmh N 0.7 mph1.1 kmh 30.11 in1019.6 mb 0.00 in0.0 mm 0.00 in0.0 mm 0.00 in0.0 mm
09:45 PM 55.0°F12.8°C 51.6°F10.9°C 88% 0.2 mph N0.3 kmh N 0.7 mph1.1 kmh 30.11 in1019.6 mb 0.00 in0.0 mm 0.00 in0.0 mm 0.00 in0.0 mm
10:00 PM 54.1°F12.3°C 50.1°F10.1°C 86% 0.5 mph WSW0.8 kmh WSW 1.6 mph2.6 kmh 30.11 in1019.6 mb 0.00 in0.0 mm 0.00 in0.0 mm 0.00 in0.0 mm
10:15 PM 52.9°F11.6°C 48.2°F9.0°C 84% 0.5 mph WSW0.8 kmh WSW 1.6 mph2.6 kmh 30.12 in1020.0 mb 0.00 in0.0 mm 0.00 in0.0 mm 0.00 in0.0 mm
10:30 PM 52.0°F11.1°C 47.0°F8.3°C 83% 0.4 mph NW0.6 kmh NW 1.6 mph2.6 kmh 30.12 in1020.0 mb 0.00 in0.0 mm 0.00 in0.0 mm 0.00 in0.0 mm
10:45 PM 51.4°F10.8°C 46.8°F8.2°C 84% 0.7 mph NW1.1 kmh NW 1.6 mph2.6 kmh 30.12 in1020.0 mb 0.00 in0.0 mm 0.00 in0.0 mm 0.00 in0.0 mm
11:00 PM 51.3°F10.7°C 46.6°F8.1°C 84% 0.8 mph NNW1.3 kmh NNW 2.2 mph3.5 kmh 30.12 in1020.0 mb 0.00 in0.0 mm 0.00 in0.0 mm 0.00 in0.0 mm
11:15 PM 50.9°F10.5°C 46.2°F7.9°C 84% 0.3 mph NW0.5 kmh NW 1.6 mph2.6 kmh 30.12 in1020.0 mb 0.00 in0.0 mm 0.00 in0.0 mm 0.00 in0.0 mm
11:30 PM 50.5°F10.3°C 46.2°F7.9°C 85% 0.3 mph NW0.5 kmh NW 0.7 mph1.1 kmh 30.13 in1020.3 mb 0.00 in0.0 mm 0.00 in0.0 mm 0.00 in0.0 mm
11:45 PM 50.4°F10.2°C 46.0°F7.8°C 85% 0.3 mph NNW0.5 kmh NNW 0.7 mph1.1 kmh 30.13 in1020.3 mb 0.00 in0.0 mm 0.00 in0.0 mm 0.00 in0.0 mm